sensor_id;sensor_type;location;lat;lon;timestamp;P1;durP1;ratioP1;P2;durP2;ratioP2
13114;SDS011;6623;52.120;8.660;2022-11-20T00:01:43;13.70;;;10.27;;
13114;SDS011;6623;52.120;8.660;2022-11-20T00:04:10;13.50;;;10.30;;
13114;SDS011;6623;52.120;8.660;2022-11-20T00:06:36;13.88;;;10.82;;
13114;SDS011;6623;52.120;8.660;2022-11-20T00:09:02;15.90;;;11.03;;
13114;SDS011;6623;52.120;8.660;2022-11-20T00:11:30;13.27;;;10.60;;
13114;SDS011;6623;52.120;8.660;2022-11-20T00:13:57;14.48;;;10.18;;
13114;SDS011;6623;52.120;8.660;2022-11-20T00:16:24;13.32;;;10.35;;
13114;SDS011;6623;52.120;8.660;2022-11-20T00:18:51;14.00;;;9.95;;
13114;SDS011;6623;52.120;8.660;2022-11-20T00:21:23;13.45;;;10.32;;
13114;SDS011;6623;52.120;8.660;2022-11-20T00:23:50;14.52;;;10.93;;
13114;SDS011;6623;52.120;8.660;2022-11-20T00:26:17;14.35;;;10.50;;
13114;SDS011;6623;52.120;8.660;2022-11-20T00:28:48;22.40;;;11.05;;
13114;SDS011;6623;52.120;8.660;2022-11-20T00:31:15;15.93;;;11.25;;
13114;SDS011;6623;52.120;8.660;2022-11-20T00:33:42;15.18;;;11.05;;
13114;SDS011;6623;52.120;8.660;2022-11-20T00:36:09;13.48;;;11.02;;
13114;SDS011;6623;52.120;8.660;2022-11-20T00:38:39;14.10;;;11.15;;
13114;SDS011;6623;52.120;8.660;2022-11-20T00:41:09;14.60;;;11.32;;
13114;SDS011;6623;52.120;8.660;2022-11-20T00:43:39;14.55;;;10.57;;
13114;SDS011;6623;52.120;8.660;2022-11-20T00:46:06;14.47;;;11.30;;
13114;SDS011;6623;52.120;8.660;2022-11-20T00:48:33;15.63;;;11.48;;
13114;SDS011;6623;52.120;8.660;2022-11-20T00:50:59;13.93;;;10.73;;
13114;SDS011;6623;52.120;8.660;2022-11-20T00:53:25;14.02;;;11.18;;
13114;SDS011;6623;52.120;8.660;2022-11-20T00:55:58;14.53;;;11.57;;
13114;SDS011;6623;52.120;8.660;2022-11-20T00:58:28;14.88;;;10.80;;
13114;SDS011;6623;52.120;8.660;2022-11-20T01:01:05;14.32;;;10.35;;
13114;SDS011;6623;52.120;8.660;2022-11-20T01:03:34;14.02;;;11.32;;
13114;SDS011;6623;52.120;8.660;2022-11-20T01:06:01;16.23;;;12.30;;
13114;SDS011;6623;52.120;8.660;2022-11-20T01:08:29;15.73;;;11.68;;
13114;SDS011;6623;52.120;8.660;2022-11-20T01:11:03;15.98;;;10.80;;
13114;SDS011;6623;52.120;8.660;2022-11-20T01:13:31;15.82;;;11.85;;
13114;SDS011;6623;52.120;8.660;2022-11-20T01:18:45;14.65;;;10.57;;
13114;SDS011;6623;52.120;8.660;2022-11-20T01:21:17;13.60;;;10.40;;
13114;SDS011;6623;52.120;8.660;2022-11-20T01:23:47;13.93;;;10.30;;
13114;SDS011;6623;52.120;8.660;2022-11-20T01:26:15;13.23;;;10.13;;
13114;SDS011;6623;52.120;8.660;2022-11-20T01:28:43;12.25;;;9.05;;
13114;SDS011;6623;52.120;8.660;2022-11-20T01:33:45;11.32;;;8.60;;
13114;SDS011;6623;52.120;8.660;2022-11-20T01:36:13;9.50;;;8.23;;
13114;SDS011;6623;52.120;8.660;2022-11-20T01:38:39;11.35;;;9.23;;
13114;SDS011;6623;52.120;8.660;2022-11-20T01:41:05;11.33;;;9.00;;
13114;SDS011;6623;52.120;8.660;2022-11-20T01:43:32;10.85;;;9.07;;
13114;SDS011;6623;52.120;8.660;2022-11-20T01:51:25;11.25;;;8.88;;
13114;SDS011;6623;52.120;8.660;2022-11-20T01:53:58;11.43;;;8.80;;
13114;SDS011;6623;52.120;8.660;2022-11-20T01:56:26;10.80;;;8.80;;
13114;SDS011;6623;52.120;8.660;2022-11-20T01:58:55;10.75;;;9.10;;
13114;SDS011;6623;52.120;8.660;2022-11-20T02:01:24;11.05;;;8.30;;
13114;SDS011;6623;52.120;8.660;2022-11-20T02:03:50;10.70;;;8.67;;
13114;SDS011;6623;52.120;8.660;2022-11-20T02:06:23;11.50;;;8.57;;
13114;SDS011;6623;52.120;8.660;2022-11-20T02:09:05;11.30;;;8.63;;
13114;SDS011;6623;52.120;8.660;2022-11-20T02:11:31;11.67;;;8.23;;
13114;SDS011;6623;52.120;8.660;2022-11-20T02:13:57;13.37;;;9.43;;
13114;SDS011;6623;52.120;8.660;2022-11-20T02:16:25;11.43;;;8.50;;
13114;SDS011;6623;52.120;8.660;2022-11-20T02:24:34;10.07;;;8.70;;
13114;SDS011;6623;52.120;8.660;2022-11-20T02:27:10;12.10;;;8.57;;
13114;SDS011;6623;52.120;8.660;2022-11-20T02:29:39;12.80;;;8.95;;
13114;SDS011;6623;52.120;8.660;2022-11-20T02:32:23;14.32;;;9.73;;
13114;SDS011;6623;52.120;8.660;2022-11-20T02:34:51;14.98;;;9.40;;
13114;SDS011;6623;52.120;8.660;2022-11-20T02:37:17;11.67;;;9.03;;
13114;SDS011;6623;52.120;8.660;2022-11-20T02:39:44;11.88;;;9.05;;
13114;SDS011;6623;52.120;8.660;2022-11-20T02:42:12;11.13;;;8.70;;
13114;SDS011;6623;52.120;8.660;2022-11-20T02:44:38;11.10;;;9.00;;
13114;SDS011;6623;52.120;8.660;2022-11-20T02:47:04;11.47;;;9.30;;
13114;SDS011;6623;52.120;8.660;2022-11-20T02:49:29;13.13;;;9.83;;
13114;SDS011;6623;52.120;8.660;2022-11-20T02:51:55;12.47;;;9.07;;
13114;SDS011;6623;52.120;8.660;2022-11-20T02:54:20;13.17;;;10.17;;
13114;SDS011;6623;52.120;8.660;2022-11-20T02:56:46;13.77;;;10.13;;
13114;SDS011;6623;52.120;8.660;2022-11-20T02:59:12;12.63;;;9.80;;
13114;SDS011;6623;52.120;8.660;2022-11-20T03:01:37;13.90;;;10.73;;
13114;SDS011;6623;52.120;8.660;2022-11-20T03:04:03;13.13;;;10.23;;
13114;SDS011;6623;52.120;8.660;2022-11-20T03:06:29;11.20;;;9.30;;
13114;SDS011;6623;52.120;8.660;2022-11-20T03:08:54;12.10;;;9.50;;
13114;SDS011;6623;52.120;8.660;2022-11-20T03:11:20;12.80;;;10.00;;
13114;SDS011;6623;52.120;8.660;2022-11-20T03:13:46;11.73;;;8.97;;
13114;SDS011;6623;52.120;8.660;2022-11-20T03:16:12;12.10;;;9.20;;
13114;SDS011;6623;52.120;8.660;2022-11-20T03:18:40;10.70;;;8.45;;
13114;SDS011;6623;52.120;8.660;2022-11-20T03:21:07;11.43;;;9.23;;
13114;SDS011;6623;52.120;8.660;2022-11-20T03:23:34;13.05;;;9.85;;
13114;SDS011;6623;52.120;8.660;2022-11-20T03:26:10;14.20;;;9.55;;
13114;SDS011;6623;52.120;8.660;2022-11-20T03:28:36;12.30;;;9.80;;
13114;SDS011;6623;52.120;8.660;2022-11-20T03:31:08;12.63;;;9.53;;
13114;SDS011;6623;52.120;8.660;2022-11-20T03:33:35;11.35;;;9.30;;
13114;SDS011;6623;52.120;8.660;2022-11-20T03:36:05;12.20;;;9.27;;
13114;SDS011;6623;52.120;8.660;2022-11-20T03:38:32;12.45;;;9.60;;
13114;SDS011;6623;52.120;8.660;2022-11-20T03:40:59;12.03;;;9.10;;
13114;SDS011;6623;52.120;8.660;2022-11-20T03:43:26;11.35;;;9.32;;
13114;SDS011;6623;52.120;8.660;2022-11-20T03:45:52;11.57;;;9.70;;
13114;SDS011;6623;52.120;8.660;2022-11-20T03:48:18;10.30;;;8.93;;
13114;SDS011;6623;52.120;8.660;2022-11-20T03:50:43;11.17;;;9.43;;
13114;SDS011;6623;52.120;8.660;2022-11-20T03:53:09;11.07;;;9.00;;
13114;SDS011;6623;52.120;8.660;2022-11-20T03:55:34;12.40;;;9.23;;
13114;SDS011;6623;52.120;8.660;2022-11-20T03:58:00;10.67;;;8.53;;
13114;SDS011;6623;52.120;8.660;2022-11-20T04:00:25;10.17;;;8.73;;
13114;SDS011;6623;52.120;8.660;2022-11-20T04:02:51;11.93;;;9.40;;
13114;SDS011;6623;52.120;8.660;2022-11-20T04:05:16;12.40;;;9.47;;
13114;SDS011;6623;52.120;8.660;2022-11-20T04:07:42;12.10;;;9.03;;
13114;SDS011;6623;52.120;8.660;2022-11-20T04:10:08;13.00;;;8.83;;
13114;SDS011;6623;52.120;8.660;2022-11-20T04:12:35;12.05;;;9.50;;
13114;SDS011;6623;52.120;8.660;2022-11-20T04:15:01;12.20;;;9.83;;
13114;SDS011;6623;52.120;8.660;2022-11-20T04:17:27;13.40;;;10.23;;
13114;SDS011;6623;52.120;8.660;2022-11-20T04:19:52;13.40;;;10.17;;
13114;SDS011;6623;52.120;8.660;2022-11-20T04:22:18;12.70;;;9.77;;
13114;SDS011;6623;52.120;8.660;2022-11-20T04:24:43;12.87;;;10.83;;
13114;SDS011;6623;52.120;8.660;2022-11-20T04:27:09;14.47;;;9.70;;
13114;SDS011;6623;52.120;8.660;2022-11-20T04:29:34;14.83;;;10.50;;
13114;SDS011;6623;52.120;8.660;2022-11-20T04:32:00;15.40;;;10.60;;
13114;SDS011;6623;52.120;8.660;2022-11-20T04:34:25;12.13;;;9.57;;
13114;SDS011;6623;52.120;8.660;2022-11-20T04:36:51;11.77;;;9.47;;
13114;SDS011;6623;52.120;8.660;2022-11-20T04:39:16;12.07;;;9.97;;
13114;SDS011;6623;52.120;8.660;2022-11-20T04:41:42;13.53;;;9.87;;
13114;SDS011;6623;52.120;8.660;2022-11-20T04:44:08;11.53;;;9.60;;
13114;SDS011;6623;52.120;8.660;2022-11-20T04:46:35;11.47;;;9.70;;
13114;SDS011;6623;52.120;8.660;2022-11-20T04:49:05;11.65;;;9.38;;
13114;SDS011;6623;52.120;8.660;2022-11-20T04:51:31;13.77;;;10.05;;
13114;SDS011;6623;52.120;8.660;2022-11-20T04:53:57;11.90;;;9.70;;
13114;SDS011;6623;52.120;8.660;2022-11-20T04:56:23;13.70;;;10.43;;
13114;SDS011;6623;52.120;8.660;2022-11-20T04:58:49;12.47;;;9.07;;
13114;SDS011;6623;52.120;8.660;2022-11-20T05:01:16;12.73;;;9.40;;
13114;SDS011;6623;52.120;8.660;2022-11-20T05:03:43;12.32;;;9.77;;
13114;SDS011;6623;52.120;8.660;2022-11-20T05:06:11;13.50;;;10.00;;
13114;SDS011;6623;52.120;8.660;2022-11-20T05:08:38;13.48;;;10.20;;
13114;SDS011;6623;52.120;8.660;2022-11-20T05:11:05;12.77;;;9.88;;
13114;SDS011;6623;52.120;8.660;2022-11-20T05:13:32;13.27;;;10.45;;
13114;SDS011;6623;52.120;8.660;2022-11-20T05:16:08;15.33;;;9.80;;
13114;SDS011;6623;52.120;8.660;2022-11-20T05:18:35;13.02;;;10.38;;
13114;SDS011;6623;52.120;8.660;2022-11-20T05:21:02;11.13;;;9.68;;
13114;SDS011;6623;52.120;8.660;2022-11-20T05:23:28;14.97;;;10.20;;
13114;SDS011;6623;52.120;8.660;2022-11-20T05:25:55;13.65;;;10.52;;
13114;SDS011;6623;52.120;8.660;2022-11-20T05:28:21;11.98;;;9.98;;
13114;SDS011;6623;52.120;8.660;2022-11-20T05:30:48;15.98;;;10.02;;
13114;SDS011;6623;52.120;8.660;2022-11-20T05:33:13;13.63;;;10.70;;
13114;SDS011;6623;52.120;8.660;2022-11-20T05:35:39;12.33;;;10.23;;
13114;SDS011;6623;52.120;8.660;2022-11-20T05:38:05;13.50;;;9.87;;
13114;SDS011;6623;52.120;8.660;2022-11-20T05:40:30;12.33;;;9.53;;
13114;SDS011;6623;52.120;8.660;2022-11-20T05:42:56;13.40;;;10.07;;
13114;SDS011;6623;52.120;8.660;2022-11-20T05:45:21;13.70;;;10.20;;
13114;SDS011;6623;52.120;8.660;2022-11-20T05:47:47;11.83;;;9.80;;
13114;SDS011;6623;52.120;8.660;2022-11-20T05:50:13;11.23;;;9.13;;
13114;SDS011;6623;52.120;8.660;2022-11-20T05:52:39;14.65;;;9.63;;
13114;SDS011;6623;52.120;8.660;2022-11-20T05:55:05;14.03;;;10.50;;
13114;SDS011;6623;52.120;8.660;2022-11-20T05:57:31;12.07;;;8.97;;
13114;SDS011;6623;52.120;8.660;2022-11-20T05:59:57;11.83;;;9.50;;
13114;SDS011;6623;52.120;8.660;2022-11-20T06:02:22;11.87;;;9.50;;
13114;SDS011;6623;52.120;8.660;2022-11-20T06:04:48;12.27;;;9.43;;
13114;SDS011;6623;52.120;8.660;2022-11-20T06:07:13;11.57;;;9.10;;
13114;SDS011;6623;52.120;8.660;2022-11-20T06:09:39;13.83;;;9.93;;
13114;SDS011;6623;52.120;8.660;2022-11-20T06:12:05;10.83;;;8.20;;
13114;SDS011;6623;52.120;8.660;2022-11-20T06:14:30;11.07;;;8.70;;
13114;SDS011;6623;52.120;8.660;2022-11-20T06:16:56;14.00;;;8.57;;
13114;SDS011;6623;52.120;8.660;2022-11-20T06:19:22;12.20;;;9.40;;
13114;SDS011;6623;52.120;8.660;2022-11-20T06:21:48;10.57;;;8.27;;
13114;SDS011;6623;52.120;8.660;2022-11-20T06:24:16;10.32;;;8.00;;
13114;SDS011;6623;52.120;8.660;2022-11-20T06:26:44;12.75;;;8.50;;
13114;SDS011;6623;52.120;8.660;2022-11-20T06:29:10;9.98;;;8.45;;
13114;SDS011;6623;52.120;8.660;2022-11-20T06:31:35;10.77;;;8.27;;
13114;SDS011;6623;52.120;8.660;2022-11-20T06:34:03;12.68;;;8.88;;
13114;SDS011;6623;52.120;8.660;2022-11-20T06:36:30;11.10;;;9.23;;
13114;SDS011;6623;52.120;8.660;2022-11-20T06:38:56;10.57;;;8.73;;
13114;SDS011;6623;52.120;8.660;2022-11-20T06:41:22;11.70;;;9.40;;
13114;SDS011;6623;52.120;8.660;2022-11-20T06:43:48;12.00;;;9.32;;
13114;SDS011;6623;52.120;8.660;2022-11-20T06:46:14;11.32;;;8.98;;
13114;SDS011;6623;52.120;8.660;2022-11-20T06:48:42;13.02;;;9.40;;
13114;SDS011;6623;52.120;8.660;2022-11-20T06:51:08;13.48;;;10.13;;
13114;SDS011;6623;52.120;8.660;2022-11-20T06:53:34;12.63;;;9.90;;
13114;SDS011;6623;52.120;8.660;2022-11-20T06:56:01;12.32;;;9.27;;
13114;SDS011;6623;52.120;8.660;2022-11-20T06:58:27;11.65;;;9.10;;
13114;SDS011;6623;52.120;8.660;2022-11-20T07:01:01;10.68;;;8.93;;
13114;SDS011;6623;52.120;8.660;2022-11-20T07:03:28;13.80;;;10.02;;
13114;SDS011;6623;52.120;8.660;2022-11-20T07:05:57;12.80;;;9.30;;
13114;SDS011;6623;52.120;8.660;2022-11-20T07:08:24;12.95;;;9.82;;
13114;SDS011;6623;52.120;8.660;2022-11-20T07:10:50;12.00;;;9.70;;
13114;SDS011;6623;52.120;8.660;2022-11-20T07:13:22;11.02;;;9.07;;
13114;SDS011;6623;52.120;8.660;2022-11-20T07:15:47;11.47;;;9.33;;
13114;SDS011;6623;52.120;8.660;2022-11-20T07:18:13;11.90;;;9.60;;
13114;SDS011;6623;52.120;8.660;2022-11-20T07:20:38;12.73;;;9.43;;
13114;SDS011;6623;52.120;8.660;2022-11-20T07:23:04;12.73;;;9.87;;
13114;SDS011;6623;52.120;8.660;2022-11-20T07:25:29;12.63;;;9.43;;
13114;SDS011;6623;52.120;8.660;2022-11-20T07:27:58;12.43;;;10.00;;
13114;SDS011;6623;52.120;8.660;2022-11-20T07:30:25;12.65;;;10.10;;
13114;SDS011;6623;52.120;8.660;2022-11-20T07:32:52;12.75;;;9.15;;
13114;SDS011;6623;52.120;8.660;2022-11-20T07:35:18;11.98;;;10.13;;
13114;SDS011;6623;52.120;8.660;2022-11-20T07:37:44;12.50;;;9.98;;
13114;SDS011;6623;52.120;8.660;2022-11-20T07:40:10;11.35;;;9.25;;
13114;SDS011;6623;52.120;8.660;2022-11-20T07:42:49;12.27;;;9.30;;
13114;SDS011;6623;52.120;8.660;2022-11-20T07:45:17;13.40;;;10.32;;
13114;SDS011;6623;52.120;8.660;2022-11-20T07:47:45;12.05;;;9.85;;
13114;SDS011;6623;52.120;8.660;2022-11-20T07:50:11;12.27;;;9.77;;
13114;SDS011;6623;52.120;8.660;2022-11-20T07:52:37;12.98;;;9.15;;
13114;SDS011;6623;52.120;8.660;2022-11-20T07:55:03;13.90;;;10.10;;
13114;SDS011;6623;52.120;8.660;2022-11-20T07:57:30;11.80;;;9.88;;
13114;SDS011;6623;52.120;8.660;2022-11-20T07:59:55;14.30;;;10.00;;
13114;SDS011;6623;52.120;8.660;2022-11-20T08:02:21;11.10;;;9.33;;
13114;SDS011;6623;52.120;8.660;2022-11-20T08:04:47;12.57;;;10.43;;
13114;SDS011;6623;52.120;8.660;2022-11-20T08:07:12;13.03;;;10.17;;
13114;SDS011;6623;52.120;8.660;2022-11-20T08:09:38;13.07;;;10.30;;
13114;SDS011;6623;52.120;8.660;2022-11-20T08:12:03;13.07;;;10.07;;
13114;SDS011;6623;52.120;8.660;2022-11-20T08:14:47;11.75;;;9.95;;
13114;SDS011;6623;52.120;8.660;2022-11-20T08:17:13;11.50;;;9.70;;
13114;SDS011;6623;52.120;8.660;2022-11-20T08:19:38;13.67;;;9.87;;
13114;SDS011;6623;52.120;8.660;2022-11-20T08:22:04;11.87;;;9.53;;
13114;SDS011;6623;52.120;8.660;2022-11-20T08:24:30;13.63;;;10.10;;
13114;SDS011;6623;52.120;8.660;2022-11-20T08:26:57;13.97;;;9.87;;
13114;SDS011;6623;52.120;8.660;2022-11-20T08:29:24;12.63;;;9.90;;
13114;SDS011;6623;52.120;8.660;2022-11-20T08:31:50;17.65;;;10.82;;
13114;SDS011;6623;52.120;8.660;2022-11-20T08:34:16;13.43;;;9.83;;
13114;SDS011;6623;52.120;8.660;2022-11-20T08:36:41;14.20;;;10.60;;
13114;SDS011;6623;52.120;8.660;2022-11-20T08:39:07;15.47;;;10.80;;
13114;SDS011;6623;52.120;8.660;2022-11-20T08:41:33;15.47;;;10.60;;
13114;SDS011;6623;52.120;8.660;2022-11-20T08:43:59;17.27;;;12.00;;
13114;SDS011;6623;52.120;8.660;2022-11-20T08:46:27;15.98;;;11.63;;
13114;SDS011;6623;52.120;8.660;2022-11-20T08:48:58;16.70;;;11.35;;
13114;SDS011;6623;52.120;8.660;2022-11-20T08:51:23;16.77;;;11.67;;
13114;SDS011;6623;52.120;8.660;2022-11-20T08:53:49;17.60;;;11.03;;
13114;SDS011;6623;52.120;8.660;2022-11-20T08:56:15;15.47;;;11.40;;
13114;SDS011;6623;52.120;8.660;2022-11-20T08:58:41;14.60;;;11.23;;
13114;SDS011;6623;52.120;8.660;2022-11-20T09:01:07;23.43;;;11.73;;
13114;SDS011;6623;52.120;8.660;2022-11-20T09:03:32;16.40;;;11.17;;
13114;SDS011;6623;52.120;8.660;2022-11-20T09:06:02;15.87;;;11.63;;
13114;SDS011;6623;52.120;8.660;2022-11-20T09:08:29;16.20;;;11.88;;
13114;SDS011;6623;52.120;8.660;2022-11-20T09:10:55;19.05;;;12.45;;
13114;SDS011;6623;52.120;8.660;2022-11-20T09:13:23;26.77;;;13.13;;
13114;SDS011;6623;52.120;8.660;2022-11-20T09:15:53;15.98;;;11.07;;
13114;SDS011;6623;52.120;8.660;2022-11-20T09:18:23;17.02;;;11.65;;
13114;SDS011;6623;52.120;8.660;2022-11-20T09:20:49;15.88;;;11.55;;
13114;SDS011;6623;52.120;8.660;2022-11-20T09:23:15;15.80;;;11.93;;
13114;SDS011;6623;52.120;8.660;2022-11-20T09:25:41;16.00;;;11.90;;
13114;SDS011;6623;52.120;8.660;2022-11-20T09:28:07;15.18;;;11.75;;
13114;SDS011;6623;52.120;8.660;2022-11-20T09:30:33;14.87;;;11.97;;
13114;SDS011;6623;52.120;8.660;2022-11-20T09:32:59;16.07;;;11.70;;
13114;SDS011;6623;52.120;8.660;2022-11-20T09:35:24;14.80;;;12.00;;
13114;SDS011;6623;52.120;8.660;2022-11-20T09:37:50;17.33;;;12.63;;
13114;SDS011;6623;52.120;8.660;2022-11-20T09:51:21;19.53;;;13.83;;
13114;SDS011;6623;52.120;8.660;2022-11-20T09:54:17;18.77;;;13.77;;
13114;SDS011;6623;52.120;8.660;2022-11-20T09:56:45;16.83;;;13.00;;
13114;SDS011;6623;52.120;8.660;2022-11-20T09:59:35;18.97;;;13.87;;
13114;SDS011;6623;52.120;8.660;2022-11-20T10:02:26;15.20;;;12.33;;
13114;SDS011;6623;52.120;8.660;2022-11-20T10:05:04;13.97;;;11.73;;
13114;SDS011;6623;52.120;8.660;2022-11-20T10:07:44;15.53;;;12.30;;
13114;SDS011;6623;52.120;8.660;2022-11-20T10:10:14;14.13;;;11.07;;
13114;SDS011;6623;52.120;8.660;2022-11-20T10:15:54;10.23;;;8.80;;
13114;SDS011;6623;52.120;8.660;2022-11-20T10:26:58;11.07;;;9.33;;
13114;SDS011;6623;52.120;8.660;2022-11-20T10:29:29;13.57;;;9.93;;
13114;SDS011;6623;52.120;8.660;2022-11-20T10:32:02;11.57;;;9.80;;
13114;SDS011;6623;52.120;8.660;2022-11-20T10:37:18;9.20;;;7.50;;
13114;SDS011;6623;52.120;8.660;2022-11-20T10:47:45;9.53;;;8.17;;
13114;SDS011;6623;52.120;8.660;2022-11-20T10:50:13;9.33;;;7.07;;
13114;SDS011;6623;52.120;8.660;2022-11-20T10:58:45;8.77;;;7.13;;
13114;SDS011;6623;52.120;8.660;2022-11-20T11:01:27;8.70;;;7.80;;
13114;SDS011;6623;52.120;8.660;2022-11-20T11:03:53;10.63;;;7.80;;
13114;SDS011;6623;52.120;8.660;2022-11-20T11:09:00;12.30;;;9.27;;
13114;SDS011;6623;52.120;8.660;2022-11-20T11:11:30;8.93;;;7.67;;
13114;SDS011;6623;52.120;8.660;2022-11-20T11:14:07;9.97;;;8.77;;
13114;SDS011;6623;52.120;8.660;2022-11-20T11:16:40;9.13;;;7.77;;
13114;SDS011;6623;52.120;8.660;2022-11-20T11:19:17;11.30;;;8.63;;
13114;SDS011;6623;52.120;8.660;2022-11-20T11:21:46;10.90;;;8.40;;
13114;SDS011;6623;52.120;8.660;2022-11-20T11:27:00;9.33;;;7.60;;
13114;SDS011;6623;52.120;8.660;2022-11-20T11:29:32;9.23;;;7.93;;
13114;SDS011;6623;52.120;8.660;2022-11-20T11:32:05;9.70;;;8.13;;
13114;SDS011;6623;52.120;8.660;2022-11-20T11:34:32;8.97;;;8.03;;
13114;SDS011;6623;52.120;8.660;2022-11-20T11:36:58;10.93;;;8.43;;
13114;SDS011;6623;52.120;8.660;2022-11-20T11:39:26;9.10;;;7.77;;
13114;SDS011;6623;52.120;8.660;2022-11-20T11:41:53;9.73;;;7.73;;
13114;SDS011;6623;52.120;8.660;2022-11-20T11:44:20;9.70;;;7.83;;
13114;SDS011;6623;52.120;8.660;2022-11-20T11:47:08;10.10;;;7.93;;
13114;SDS011;6623;52.120;8.660;2022-11-20T11:49:43;8.93;;;7.40;;
13114;SDS011;6623;52.120;8.660;2022-11-20T11:52:10;9.60;;;8.17;;
13114;SDS011;6623;52.120;8.660;2022-11-20T11:54:49;9.63;;;7.77;;
13114;SDS011;6623;52.120;8.660;2022-11-20T12:00:08;10.33;;;8.37;;
13114;SDS011;6623;52.120;8.660;2022-11-20T12:02:39;9.20;;;7.90;;
13114;SDS011;6623;52.120;8.660;2022-11-20T12:05:11;8.83;;;7.30;;
13114;SDS011;6623;52.120;8.660;2022-11-20T12:07:42;11.40;;;8.40;;
13114;SDS011;6623;52.120;8.660;2022-11-20T12:15:59;8.53;;;7.30;;
13114;SDS011;6623;52.120;8.660;2022-11-20T12:18:28;7.90;;;5.83;;
13114;SDS011;6623;52.120;8.660;2022-11-20T12:31:38;6.47;;;5.10;;
13114;SDS011;6623;52.120;8.660;2022-11-20T12:37:10;6.27;;;5.30;;
13114;SDS011;6623;52.120;8.660;2022-11-20T12:39:41;6.63;;;5.37;;
13114;SDS011;6623;52.120;8.660;2022-11-20T12:42:17;6.97;;;5.47;;
13114;SDS011;6623;52.120;8.660;2022-11-20T12:45:41;6.70;;;5.60;;
13114;SDS011;6623;52.120;8.660;2022-11-20T12:51:24;6.43;;;5.40;;
13114;SDS011;6623;52.120;8.660;2022-11-20T12:59:48;5.27;;;4.67;;
13114;SDS011;6623;52.120;8.660;2022-11-20T13:05:27;6.07;;;4.70;;
13114;SDS011;6623;52.120;8.660;2022-11-20T13:08:24;7.17;;;4.77;;
13114;SDS011;6623;52.120;8.660;2022-11-20T13:11:15;5.43;;;4.37;;
13114;SDS011;6623;52.120;8.660;2022-11-20T13:14:36;5.63;;;4.70;;
13114;SDS011;6623;52.120;8.660;2022-11-20T13:16:54;4.93;;;4.07;;
13114;SDS011;6623;52.120;8.660;2022-11-20T13:19:29;5.67;;;4.33;;
13114;SDS011;6623;52.120;8.660;2022-11-20T13:21:55;5.23;;;4.10;;
13114;SDS011;6623;52.120;8.660;2022-11-20T13:26:59;5.03;;;4.43;;
13114;SDS011;6623;52.120;8.660;2022-11-20T13:29:25;7.53;;;4.40;;
13114;SDS011;6623;52.120;8.660;2022-11-20T13:32:00;5.10;;;4.50;;
13114;SDS011;6623;52.120;8.660;2022-11-20T13:34:28;10.67;;;4.67;;
13114;SDS011;6623;52.120;8.660;2022-11-20T13:36:55;5.00;;;4.50;;
13114;SDS011;6623;52.120;8.660;2022-11-20T13:41:55;6.63;;;5.00;;
13114;SDS011;6623;52.120;8.660;2022-11-20T13:44:47;6.10;;;4.53;;
13114;SDS011;6623;52.120;8.660;2022-11-20T13:47:23;5.90;;;4.57;;
13114;SDS011;6623;52.120;8.660;2022-11-20T13:49:50;6.57;;;5.40;;
13114;SDS011;6623;52.120;8.660;2022-11-20T13:58:15;6.17;;;4.83;;
13114;SDS011;6623;52.120;8.660;2022-11-20T14:01:11;6.23;;;5.17;;
13114;SDS011;6623;52.120;8.660;2022-11-20T14:03:41;7.60;;;5.17;;
13114;SDS011;6623;52.120;8.660;2022-11-20T14:06:11;6.20;;;5.20;;
13114;SDS011;6623;52.120;8.660;2022-11-20T14:08:46;5.90;;;4.97;;
13114;SDS011;6623;52.120;8.660;2022-11-20T14:11:18;6.20;;;4.80;;
13114;SDS011;6623;52.120;8.660;2022-11-20T14:16:29;5.97;;;4.87;;
13114;SDS011;6623;52.120;8.660;2022-11-20T14:18:57;6.03;;;4.90;;
13114;SDS011;6623;52.120;8.660;2022-11-20T14:21:41;6.00;;;4.93;;
13114;SDS011;6623;52.120;8.660;2022-11-20T14:24:09;6.83;;;5.17;;
13114;SDS011;6623;52.120;8.660;2022-11-20T14:26:36;6.60;;;5.23;;
13114;SDS011;6623;52.120;8.660;2022-11-20T14:29:10;7.83;;;5.70;;
13114;SDS011;6623;52.120;8.660;2022-11-20T14:31:41;7.33;;;5.50;;
13114;SDS011;6623;52.120;8.660;2022-11-20T14:34:17;6.43;;;5.33;;
13114;SDS011;6623;52.120;8.660;2022-11-20T14:36:46;8.20;;;6.10;;
13114;SDS011;6623;52.120;8.660;2022-11-20T14:39:19;21.30;;;6.67;;
13114;SDS011;6623;52.120;8.660;2022-11-20T14:41:52;7.77;;;6.50;;
13114;SDS011;6623;52.120;8.660;2022-11-20T14:44:40;8.80;;;7.30;;
13114;SDS011;6623;52.120;8.660;2022-11-20T14:47:04;9.10;;;6.90;;
13114;SDS011;6623;52.120;8.660;2022-11-20T14:49:30;10.63;;;6.80;;
13114;SDS011;6623;52.120;8.660;2022-11-20T14:52:00;9.07;;;6.80;;
13114;SDS011;6623;52.120;8.660;2022-11-20T14:54:28;8.40;;;6.37;;
13114;SDS011;6623;52.120;8.660;2022-11-20T14:56:55;8.97;;;7.00;;
13114;SDS011;6623;52.120;8.660;2022-11-20T14:59:22;7.37;;;6.20;;
13114;SDS011;6623;52.120;8.660;2022-11-20T15:01:57;8.67;;;7.30;;
13114;SDS011;6623;52.120;8.660;2022-11-20T15:04:24;8.63;;;7.33;;
13114;SDS011;6623;52.120;8.660;2022-11-20T15:06:51;9.67;;;6.90;;
13114;SDS011;6623;52.120;8.660;2022-11-20T15:09:18;8.87;;;6.90;;
13114;SDS011;6623;52.120;8.660;2022-11-20T15:11:54;13.73;;;7.83;;
13114;SDS011;6623;52.120;8.660;2022-11-20T15:14:21;10.30;;;7.53;;
13114;SDS011;6623;52.120;8.660;2022-11-20T15:16:48;11.47;;;7.90;;
13114;SDS011;6623;52.120;8.660;2022-11-20T15:19:17;10.83;;;7.47;;
13114;SDS011;6623;52.120;8.660;2022-11-20T15:21:47;9.33;;;7.63;;
13114;SDS011;6623;52.120;8.660;2022-11-20T15:24:13;9.57;;;7.57;;
13114;SDS011;6623;52.120;8.660;2022-11-20T15:26:39;10.13;;;7.90;;
13114;SDS011;6623;52.120;8.660;2022-11-20T15:29:05;9.63;;;7.80;;
13114;SDS011;6623;52.120;8.660;2022-11-20T15:31:37;11.17;;;8.97;;
13114;SDS011;6623;52.120;8.660;2022-11-20T15:34:13;14.03;;;8.67;;
13114;SDS011;6623;52.120;8.660;2022-11-20T15:36:39;9.83;;;7.70;;
13114;SDS011;6623;52.120;8.660;2022-11-20T15:39:06;11.30;;;8.80;;
13114;SDS011;6623;52.120;8.660;2022-11-20T15:41:33;13.60;;;8.47;;
13114;SDS011;6623;52.120;8.660;2022-11-20T15:44:00;9.97;;;8.33;;
13114;SDS011;6623;52.120;8.660;2022-11-20T15:46:26;11.80;;;8.93;;
13114;SDS011;6623;52.120;8.660;2022-11-20T15:48:55;10.90;;;9.23;;
13114;SDS011;6623;52.120;8.660;2022-11-20T15:54:01;14.20;;;10.30;;
13114;SDS011;6623;52.120;8.660;2022-11-20T15:56:43;12.93;;;9.83;;
13114;SDS011;6623;52.120;8.660;2022-11-20T15:59:09;12.40;;;9.23;;
13114;SDS011;6623;52.120;8.660;2022-11-20T16:01:34;12.00;;;9.30;;
13114;SDS011;6623;52.120;8.660;2022-11-20T16:04:00;12.67;;;10.20;;
13114;SDS011;6623;52.120;8.660;2022-11-20T16:06:26;13.40;;;10.23;;
13114;SDS011;6623;52.120;8.660;2022-11-20T16:08:52;14.07;;;10.20;;
13114;SDS011;6623;52.120;8.660;2022-11-20T16:11:17;13.20;;;9.80;;
13114;SDS011;6623;52.120;8.660;2022-11-20T16:13:43;13.20;;;10.60;;
13114;SDS011;6623;52.120;8.660;2022-11-20T16:16:35;14.10;;;10.23;;
13114;SDS011;6623;52.120;8.660;2022-11-20T16:19:02;14.13;;;10.23;;
13114;SDS011;6623;52.120;8.660;2022-11-20T16:21:28;14.03;;;10.33;;
13114;SDS011;6623;52.120;8.660;2022-11-20T16:24:00;16.93;;;11.57;;
13114;SDS011;6623;52.120;8.660;2022-11-20T16:26:28;17.37;;;11.53;;
13114;SDS011;6623;52.120;8.660;2022-11-20T16:28:53;15.57;;;11.80;;
13114;SDS011;6623;52.120;8.660;2022-11-20T16:31:19;15.70;;;11.03;;
13114;SDS011;6623;52.120;8.660;2022-11-20T16:33:53;15.63;;;10.37;;
13114;SDS011;6623;52.120;8.660;2022-11-20T16:36:20;14.20;;;11.00;;
13114;SDS011;6623;52.120;8.660;2022-11-20T16:38:51;14.20;;;9.90;;
13114;SDS011;6623;52.120;8.660;2022-11-20T16:41:18;13.20;;;10.30;;
13114;SDS011;6623;52.120;8.660;2022-11-20T16:43:47;16.47;;;11.50;;
13114;SDS011;6623;52.120;8.660;2022-11-20T16:46:18;14.07;;;10.83;;
13114;SDS011;6623;52.120;8.660;2022-11-20T16:49:02;13.57;;;10.53;;